Time;durP1;ratioP1;P1;durP2;ratioP2;P2;SDS_P1;SDS_P2;PMS_P1;PMS_P2;Temp;Humidity;BMP_temperature;BMP_pressure;BME280_temperature;BME280_humidity;BME280_pressure;Samples;Min_cycle;Max_cycle;Signal;HPM_P1;HPM_P2
2021/06/21 00:00:58;;;;;;;7.53;5.47;;;;;;;;;;5047240;28;39120;-78
2021/06/21 00:03:24;;;;;;;8.88;5.50;;;;;;;;;;5045472;28;39355;-78
2021/06/21 00:05:51;;;;;;;6.30;5.65;;;;;;;;;;5031894;28;36953;-79
2021/06/21 00:08:17;;;;;;;8.27;5.43;;;;;;;;;;5050947;28;40685;-80
2021/06/21 00:10:44;;;;;;;10.88;5.70;;;;;;;;;;5058009;28;39809;-80
2021/06/21 00:13:10;;;;;;;9.02;5.68;;;;;;;;;;5033914;28;39345;-81
2021/06/21 00:15:37;;;;;;;12.65;5.00;;;;;;;;;;5025315;28;39469;-78
2021/06/21 00:18:03;;;;;;;8.18;5.70;;;;;;;;;;5027408;28;39042;-79
2021/06/21 00:20:30;;;;;;;9.32;5.70;;;;;;;;;;5024434;28;38857;-79
2021/06/21 00:22:57;;;;;;;9.73;5.43;;;;;;;;;;5029259;28;38669;-79
2021/06/21 00:25:24;;;;;;;10.27;5.38;;;;;;;;;;5031125;27;36614;-81
2021/06/21 00:27:51;;;;;;;12.23;5.65;;;;;;;;;;5061928;28;39767;-83
2021/06/21 00:30:18;;;;;;;7.63;4.80;;;;;;;;;;5070793;28;38900;-80
2021/06/21 00:32:45;;;;;;;10.00;5.65;;;;;;;;;;5042070;28;38132;-81
2021/06/21 00:35:11;;;;;;;11.30;5.43;;;;;;;;;;5060260;28;37523;-80
2021/06/21 00:37:38;;;;;;;8.88;5.22;;;;;;;;;;5027872;28;39195;-80
2021/06/21 00:40:06;;;;;;;10.23;5.50;;;;;;;;;;5025913;28;39674;-82
2021/06/21 00:42:33;;;;;;;9.93;5.50;;;;;;;;;;5021788;28;47173;-83
2021/06/21 00:44:59;;;;;;;11.52;5.40;;;;;;;;;;5041889;28;37659;-81
2021/06/21 00:47:26;;;;;;;9.60;5.07;;;;;;;;;;5026637;27;38722;-82
2021/06/21 00:49:52;;;;;;;8.60;5.30;;;;;;;;;;5051055;28;39242;-82
2021/06/21 00:52:21;;;;;;;9.98;6.10;;;;;;;;;;5020781;28;38378;-82
2021/06/21 00:54:59;;;;;;;11.10;5.75;;;;;;;;;;5051572;28;36715;-80
2021/06/21 00:57:27;;;;;;;12.55;6.38;;;;;;;;;;5027566;28;39686;-84
2021/06/21 00:59:54;;;;;;;14.70;6.88;;;;;;;;;;5056703;28;39875;-81
2021/06/21 01:02:21;;;;;;;8.90;6.30;;;;;;;;;;5026413;28;38450;-83
2021/06/21 01:04:48;;;;;;;13.32;7.00;;;;;;;;;;5056823;28;37585;-83
2021/06/21 01:07:15;;;;;;;9.68;6.30;;;;;;;;;;5025352;28;40551;-82
2021/06/21 01:09:41;;;;;;;9.25;6.57;;;;;;;;;;5025663;28;39664;-82
2021/06/21 01:12:30;;;;;;;11.70;6.80;;;;;;;;;;5053859;27;39022;-83
2021/06/21 01:14:58;;;;;;;10.30;5.88;;;;;;;;;;4998084;28;37330;-81
2021/06/21 01:17:31;;;;;;;14.48;6.80;;;;;;;;;;5052188;27;39546;-83
2021/06/21 01:20:21;;;;;;;13.95;7.47;;;;;;;;;;5054069;28;37712;-83
2021/06/21 01:23:16;;;;;;;12.05;7.38;;;;;;;;;;5015416;28;49019;-81
2021/06/21 01:25:45;;;;;;;13.07;8.73;;;;;;;;;;5042093;28;47074;-81
2021/06/21 01:28:15;;;;;;;13.80;9.38;;;;;;;;;;5045234;28;39919;-81
2021/06/21 01:31:02;;;;;;;12.38;7.35;;;;;;;;;;5042218;28;39299;-81
2021/06/21 01:33:29;;;;;;;15.57;8.68;;;;;;;;;;5037936;28;46893;-82
2021/06/21 01:36:00;;;;;;;15.68;8.65;;;;;;;;;;5047717;27;37169;-79
2021/06/21 01:38:29;;;;;;;13.85;8.55;;;;;;;;;;5049318;27;40624;-81
2021/06/21 01:40:57;;;;;;;13.52;8.98;;;;;;;;;;5045842;27;39368;-82
2021/06/21 01:43:26;;;;;;;14.60;7.88;;;;;;;;;;5047013;27;39127;-82
2021/06/21 01:45:53;;;;;;;15.00;8.95;;;;;;;;;;5051265;27;37106;-80
2021/06/21 01:48:22;;;;;;;11.95;8.80;;;;;;;;;;5041924;28;42228;-79
2021/06/21 01:50:49;;;;;;;14.13;8.82;;;;;;;;;;5046572;27;39119;-81
2021/06/21 01:53:18;;;;;;;12.80;8.68;;;;;;;;;;5043234;27;38150;-78
2021/06/21 01:55:49;;;;;;;12.95;8.57;;;;;;;;;;5045355;27;37185;-81
2021/06/21 01:58:17;;;;;;;14.52;7.93;;;;;;;;;;5044847;27;39152;-81
2021/06/21 02:00:43;;;;;;;13.63;8.70;;;;;;;;;;5052599;28;39429;-82
2021/06/21 02:03:10;;;;;;;18.33;9.15;;;;;;;;;;5046623;27;39560;-82
2021/06/21 02:05:37;;;;;;;10.25;8.80;;;;;;;;;;5050564;28;38145;-82
2021/06/21 02:08:04;;;;;;;12.65;9.05;;;;;;;;;;5064018;27;39604;-83
2021/06/21 02:10:33;;;;;;;11.32;9.30;;;;;;;;;;5064426;27;38933;-83
2021/06/21 02:13:00;;;;;;;12.00;9.05;;;;;;;;;;5046319;28;38637;-81
2021/06/21 02:15:28;;;;;;;12.93;9.07;;;;;;;;;;5055711;27;47795;-84
2021/06/21 02:17:55;;;;;;;12.63;9.02;;;;;;;;;;5053290;28;39411;-84
2021/06/21 02:20:22;;;;;;;11.95;8.80;;;;;;;;;;5078594;27;37819;-83
2021/06/21 02:22:48;;;;;;;16.83;9.60;;;;;;;;;;5052822;28;40005;-80
2021/06/21 02:25:15;;;;;;;14.35;9.32;;;;;;;;;;5049270;27;38137;-81
2021/06/21 02:27:43;;;;;;;9.48;8.20;;;;;;;;;;5056814;27;38899;-81
2021/06/21 02:30:11;;;;;;;11.18;8.70;;;;;;;;;;5044240;27;39567;-83
2021/06/21 02:32:37;;;;;;;10.60;8.35;;;;;;;;;;5050183;28;39108;-83
2021/06/21 02:35:09;;;;;;;9.90;8.13;;;;;;;;;;5052430;27;37549;-84
2021/06/21 02:37:36;;;;;;;11.90;7.55;;;;;;;;;;5066701;27;47778;-83
2021/06/21 02:40:07;;;;;;;13.88;8.02;;;;;;;;;;5049648;27;38569;-83
2021/06/21 02:42:34;;;;;;;16.48;9.40;;;;;;;;;;5069356;28;46983;-83
2021/06/21 02:45:00;;;;;;;15.77;9.57;;;;;;;;;;5064737;27;37143;-81
2021/06/21 02:47:27;;;;;;;10.95;8.05;;;;;;;;;;5041370;27;37285;-81
2021/06/21 02:49:53;;;;;;;10.80;8.13;;;;;;;;;;5047759;28;40531;-84
2021/06/21 02:52:29;;;;;;;12.98;8.60;;;;;;;;;;5046654;27;38719;-82
2021/06/21 02:55:06;;;;;;;14.15;8.80;;;;;;;;;;5062276;27;37677;-83
2021/06/21 02:57:40;;;;;;;11.65;7.95;;;;;;;;;;5039685;28;47351;-83
2021/06/21 03:00:07;;;;;;;14.05;8.00;;;;;;;;;;5070328;27;39512;-85
2021/06/21 03:02:34;;;;;;;15.30;8.02;;;;;;;;;;5048290;28;47041;-82
2021/06/21 03:05:02;;;;;;;12.63;7.95;;;;;;;;;;5048728;28;33672;-83
2021/06/21 03:07:28;;;;;;;10.02;7.93;;;;;;;;;;5050305;27;49777;-82
2021/06/21 03:09:55;;;;;;;11.77;8.40;;;;;;;;;;5052734;28;39447;-83
2021/06/21 03:12:24;;;;;;;10.02;8.18;;;;;;;;;;5047492;27;38940;-84
2021/06/21 03:14:51;;;;;;;13.57;8.70;;;;;;;;;;5051767;28;36738;-83
2021/06/21 03:17:18;;;;;;;10.55;8.20;;;;;;;;;;5077650;27;38039;-83
2021/06/21 03:19:45;;;;;;;12.73;8.82;;;;;;;;;;5046229;28;40056;-83
2021/06/21 03:22:11;;;;;;;16.05;9.02;;;;;;;;;;5049205;27;40106;-84
2021/06/21 03:24:38;;;;;;;15.15;8.60;;;;;;;;;;5048976;27;36619;-83
2021/06/21 03:27:05;;;;;;;12.70;9.02;;;;;;;;;;5062827;27;39166;-82
2021/06/21 03:29:32;;;;;;;14.45;8.75;;;;;;;;;;5075401;27;39275;-83
2021/06/21 03:32:06;;;;;;;9.32;8.23;;;;;;;;;;5047933;28;39122;-84
2021/06/21 03:34:34;;;;;;;12.85;8.73;;;;;;;;;;5048307;28;47085;-82
2021/06/21 03:37:01;;;;;;;13.82;9.30;;;;;;;;;;5048946;27;40086;-84
2021/06/21 03:39:27;;;;;;;12.35;8.57;;;;;;;;;;5045951;27;48983;-82
2021/06/21 03:41:53;;;;;;;13.50;8.02;;;;;;;;;;5050131;27;39624;-82
2021/06/21 03:44:20;;;;;;;17.05;8.95;;;;;;;;;;5043921;28;37376;-84
2021/06/21 03:46:46;;;;;;;14.02;8.80;;;;;;;;;;5042088;28;37646;-82
2021/06/21 03:49:12;;;;;;;11.95;7.88;;;;;;;;;;5051540;27;38660;-82
2021/06/21 03:51:39;;;;;;;13.20;9.15;;;;;;;;;;5052375;28;38026;-83
2021/06/21 03:54:05;;;;;;;12.00;8.52;;;;;;;;;;5051422;27;37329;-83
2021/06/21 03:56:32;;;;;;;11.32;8.20;;;;;;;;;;5065147;27;39882;-81
2021/06/21 03:58:58;;;;;;;13.10;8.40;;;;;;;;;;5064511;27;39246;-84
2021/06/21 04:01:24;;;;;;;11.43;8.45;;;;;;;;;;5045852;27;37819;-80
2021/06/21 04:03:55;;;;;;;9.20;7.90;;;;;;;;;;5051390;27;34795;-83
2021/06/21 04:06:21;;;;;;;9.50;8.15;;;;;;;;;;5079819;27;38000;-84
2021/06/21 04:08:47;;;;;;;11.95;7.40;;;;;;;;;;5050065;27;39796;-83
2021/06/21 04:11:14;;;;;;;11.10;8.52;;;;;;;;;;5046778;27;39168;-83
2021/06/21 04:13:40;;;;;;;11.60;8.00;;;;;;;;;;5052974;28;37424;-83
2021/06/21 04:16:06;;;;;;;12.93;7.88;;;;;;;;;;5048662;27;38666;-82
2021/06/21 04:18:33;;;;;;;8.80;7.30;;;;;;;;;;5054447;28;37583;-83
2021/06/21 04:20:59;;;;;;;10.68;7.78;;;;;;;;;;5048169;28;39384;-83
2021/06/21 04:23:26;;;;;;;11.60;8.68;;;;;;;;;;5061770;27;37213;-83
2021/06/21 04:25:52;;;;;;;16.45;9.07;;;;;;;;;;5048382;28;39430;-83
2021/06/21 04:28:19;;;;;;;11.48;9.02;;;;;;;;;;5051089;27;39229;-82
2021/06/21 04:30:47;;;;;;;11.20;8.13;;;;;;;;;;5046007;27;38655;-83
2021/06/21 04:33:13;;;;;;;13.18;8.48;;;;;;;;;;5051128;27;38236;-82
2021/06/21 04:35:40;;;;;;;9.77;8.07;;;;;;;;;;5047122;28;37810;-85
2021/06/21 04:38:06;;;;;;;12.27;8.63;;;;;;;;;;5046309;27;37635;-84
2021/06/21 04:40:34;;;;;;;13.18;8.20;;;;;;;;;;5030561;28;38998;-83
2021/06/21 04:43:00;;;;;;;9.73;7.90;;;;;;;;;;5052679;28;37106;-85
2021/06/21 04:45:26;;;;;;;10.45;8.23;;;;;;;;;;5022873;28;40749;-83
2021/06/21 04:47:53;;;;;;;8.32;7.03;;;;;;;;;;5026907;28;38491;-85
2021/06/21 04:50:20;;;;;;;10.30;7.22;;;;;;;;;;5043639;28;39277;-85
2021/06/21 04:52:48;;;;;;;9.43;8.05;;;;;;;;;;5024397;28;36827;-85
2021/06/21 04:55:15;;;;;;;11.40;8.25;;;;;;;;;;5049352;27;40852;-86
2021/06/21 04:57:42;;;;;;;10.45;7.28;;;;;;;;;;5051539;28;39297;-86
2021/06/21 05:00:11;;;;;;;9.43;7.45;;;;;;;;;;5025413;28;39667;-84
2021/06/21 05:02:39;;;;;;;13.00;8.25;;;;;;;;;;5024158;28;36814;-84
2021/06/21 05:05:06;;;;;;;10.55;8.18;;;;;;;;;;5020613;28;38452;-85
2021/06/21 05:07:32;;;;;;;14.15;9.70;;;;;;;;;;5043271;28;38938;-84
2021/06/21 05:09:59;;;;;;;14.55;8.70;;;;;;;;;;5025828;28;38220;-84
2021/06/21 05:12:25;;;;;;;10.93;8.55;;;;;;;;;;5028992;28;38363;-81
2021/06/21 05:14:51;;;;;;;10.23;8.10;;;;;;;;;;5033460;28;38454;-83
2021/06/21 05:17:18;;;;;;;11.68;8.82;;;;;;;;;;5050952;28;40429;-85
2021/06/21 05:19:44;;;;;;;12.23;9.82;;;;;;;;;;5051768;28;38964;-85
2021/06/21 05:22:11;;;;;;;16.95;11.23;;;;;;;;;;5052726;28;38691;-83
2021/06/21 05:24:37;;;;;;;15.70;9.77;;;;;;;;;;5028055;28;40486;-83
2021/06/21 05:27:04;;;;;;;16.08;10.98;;;;;;;;;;5032375;28;40565;-84
2021/06/21 05:29:30;;;;;;;16.33;10.98;;;;;;;;;;5047090;28;40077;-81
2021/06/21 05:31:57;;;;;;;12.50;10.27;;;;;;;;;;5029631;28;38825;-84
2021/06/21 05:34:25;;;;;;;14.93;9.55;;;;;;;;;;5028900;28;39703;-80
2021/06/21 05:36:52;;;;;;;15.40;12.02;;;;;;;;;;5036062;27;38719;-83
2021/06/21 05:39:18;;;;;;;14.02;10.25;;;;;;;;;;5025249;28;39129;-82
2021/06/21 05:41:44;;;;;;;15.70;12.38;;;;;;;;;;5024054;28;37332;-81
2021/06/21 05:44:11;;;;;;;10.77;8.95;;;;;;;;;;5049496;28;40465;-82
2021/06/21 05:46:37;;;;;;;12.38;9.13;;;;;;;;;;5046851;28;20129;-82
2021/06/21 05:49:04;;;;;;;15.35;10.65;;;;;;;;;;5053105;28;40323;-82
2021/06/21 05:51:30;;;;;;;16.58;11.55;;;;;;;;;;5052804;27;36991;-82
2021/06/21 05:53:57;;;;;;;15.55;9.38;;;;;;;;;;5027472;28;40502;-82
2021/06/21 05:56:23;;;;;;;13.90;9.88;;;;;;;;;;5031351;28;37086;-83
2021/06/21 05:58:49;;;;;;;12.27;9.30;;;;;;;;;;5052407;28;38986;-83
2021/06/21 06:01:16;;;;;;;14.75;9.82;;;;;;;;;;5037593;28;36411;-85
2021/06/21 06:03:42;;;;;;;16.88;9.70;;;;;;;;;;5035012;28;39819;-84
2021/06/21 06:06:09;;;;;;;13.65;9.88;;;;;;;;;;5064041;28;40262;-83
2021/06/21 06:08:35;;;;;;;14.93;9.90;;;;;;;;;;5070576;28;39395;-84
2021/06/21 06:11:02;;;;;;;15.52;10.32;;;;;;;;;;5072084;28;37203;-84
2021/06/21 06:13:28;;;;;;;13.65;9.32;;;;;;;;;;5029087;28;39311;-85
2021/06/21 06:15:55;;;;;;;13.32;9.75;;;;;;;;;;5061990;27;38218;-82
2021/06/21 06:18:21;;;;;;;16.80;9.70;;;;;;;;;;5038627;28;39350;-81
2021/06/21 06:20:48;;;;;;;12.50;8.80;;;;;;;;;;5039571;28;37749;-82
2021/06/21 06:23:15;;;;;;;10.23;8.15;;;;;;;;;;5064502;28;39239;-81
2021/06/21 06:25:41;;;;;;;11.40;8.75;;;;;;;;;;5030332;28;38986;-84
2021/06/21 06:28:08;;;;;;;15.25;10.35;;;;;;;;;;5047359;28;39943;-83
2021/06/21 06:30:35;;;;;;;13.73;8.88;;;;;;;;;;5035170;28;37414;-84
2021/06/21 06:33:02;;;;;;;12.65;9.10;;;;;;;;;;5033262;28;40845;-82
2021/06/21 06:35:28;;;;;;;9.93;8.75;;;;;;;;;;5033716;28;39490;-83
2021/06/21 06:37:54;;;;;;;12.82;9.32;;;;;;;;;;5032221;28;39369;-81
2021/06/21 06:40:21;;;;;;;11.85;8.85;;;;;;;;;;5072549;27;37602;-78
2021/06/21 06:42:47;;;;;;;11.25;8.95;;;;;;;;;;5036887;28;38376;-80
2021/06/21 06:45:14;;;;;;;11.70;9.50;;;;;;;;;;5057709;28;39791;-86
2021/06/21 06:47:41;;;;;;;13.63;8.65;;;;;;;;;;5064157;28;39214;-87
2021/06/21 06:50:08;;;;;;;9.43;8.07;;;;;;;;;;5045064;28;38662;-81
2021/06/21 06:52:35;;;;;;;12.88;9.38;;;;;;;;;;5033050;28;38864;-82
2021/06/21 06:57:37;;;;;;;9.82;7.78;;;;;;;;;;5030310;28;49580;-83
2021/06/21 07:00:05;;;;;;;10.80;8.52;;;;;;;;;;5040928;28;37955;-83
2021/06/21 07:02:32;;;;;;;9.27;7.93;;;;;;;;;;5062258;28;35288;-81
2021/06/21 07:04:58;;;;;;;10.73;7.63;;;;;;;;;;5064315;28;40379;-81
2021/06/21 07:07:24;;;;;;;14.55;9.05;;;;;;;;;;5038712;28;38775;-83
2021/06/21 07:09:51;;;;;;;12.10;8.80;;;;;;;;;;5040814;28;37181;-84
2021/06/21 07:12:17;;;;;;;12.95;8.65;;;;;;;;;;5029892;28;39071;-80
2021/06/21 07:14:43;;;;;;;11.60;8.05;;;;;;;;;;5065820;28;39816;-80
2021/06/21 07:17:10;;;;;;;9.38;7.68;;;;;;;;;;5060665;28;40218;-83
2021/06/21 07:19:36;;;;;;;12.00;8.88;;;;;;;;;;5040127;28;37584;-82
2021/06/21 07:22:03;;;;;;;13.73;8.50;;;;;;;;;;5074204;27;39350;-82
2021/06/21 07:24:30;;;;;;;10.90;7.10;;;;;;;;;;5065725;28;37751;-80
2021/06/21 07:26:57;;;;;;;9.30;6.97;;;;;;;;;;5070114;27;39585;-83
2021/06/21 07:29:23;;;;;;;10.55;7.07;;;;;;;;;;5043563;28;38331;-81
2021/06/21 07:31:49;;;;;;;8.70;7.38;;;;;;;;;;5053052;28;40488;-84
2021/06/21 07:34:16;;;;;;;10.88;6.50;;;;;;;;;;5046512;28;40722;-81
2021/06/21 07:36:42;;;;;;;9.98;7.03;;;;;;;;;;5051711;28;38452;-83
2021/06/21 07:39:09;;;;;;;8.55;6.75;;;;;;;;;;5058551;28;37699;-80
2021/06/21 07:41:36;;;;;;;9.43;7.40;;;;;;;;;;5074393;27;39650;-81
2021/06/21 07:44:02;;;;;;;9.95;6.82;;;;;;;;;;5066351;28;38900;-81
2021/06/21 07:46:29;;;;;;;13.05;7.47;;;;;;;;;;5034992;28;46864;-81
2021/06/21 07:48:55;;;;;;;8.73;6.43;;;;;;;;;;5057867;28;37383;-80
2021/06/21 07:51:23;;;;;;;8.70;7.10;;;;;;;;;;5040641;28;39383;-81
2021/06/21 07:53:51;;;;;;;7.30;6.47;;;;;;;;;;5035885;28;39761;-81
2021/06/21 07:56:18;;;;;;;11.15;6.30;;;;;;;;;;5041037;28;39401;-81
2021/06/21 07:58:44;;;;;;;9.07;6.55;;;;;;;;;;5068747;28;38238;-80
2021/06/21 08:01:14;;;;;;;9.52;6.60;;;;;;;;;;5060077;28;38317;-81
2021/06/21 08:03:41;;;;;;;13.77;6.50;;;;;;;;;;5038368;28;38902;-80
2021/06/21 08:06:10;;;;;;;9.90;6.75;;;;;;;;;;5032594;28;39769;-81
2021/06/21 08:08:38;;;;;;;8.90;6.00;;;;;;;;;;5072861;28;37007;-83
2021/06/21 08:11:04;;;;;;;9.90;6.40;;;;;;;;;;5071621;27;39728;-81
2021/06/21 08:13:31;;;;;;;8.75;5.32;;;;;;;;;;5039275;28;39275;-80
2021/06/21 08:15:57;;;;;;;6.97;4.85;;;;;;;;;;5036740;28;38957;-79
2021/06/21 08:18:23;;;;;;;6.00;5.35;;;;;;;;;;5037324;28;37087;-80
2021/06/21 08:20:50;;;;;;;8.73;5.32;;;;;;;;;;5031643;28;40536;-83
2021/06/21 08:23:17;;;;;;;10.23;5.75;;;;;;;;;;5046766;28;39931;-79
2021/06/21 08:25:44;;;;;;;6.32;4.97;;;;;;;;;;5055655;28;39209;-79
2021/06/21 08:28:11;;;;;;;6.43;5.47;;;;;;;;;;5053384;28;37774;-77
2021/06/21 08:30:38;;;;;;;9.63;5.78;;;;;;;;;;5071353;28;40726;-79
2021/06/21 08:33:05;;;;;;;6.93;4.85;;;;;;;;;;5057817;27;39031;-80
2021/06/21 08:35:31;;;;;;;8.20;5.25;;;;;;;;;;5073374;27;39128;-78
2021/06/21 08:37:57;;;;;;;6.57;4.75;;;;;;;;;;5057625;28;37434;-79
2021/06/21 08:40:24;;;;;;;7.20;4.72;;;;;;;;;;5051295;27;39547;-82
2021/06/21 08:42:51;;;;;;;7.20;4.40;;;;;;;;;;5066066;27;39205;-81
2021/06/21 08:45:18;;;;;;;6.57;4.88;;;;;;;;;;5062276;28;39889;-78
2021/06/21 08:47:45;;;;;;;8.02;4.60;;;;;;;;;;5061607;27;36681;-80
2021/06/21 08:50:13;;;;;;;5.80;4.03;;;;;;;;;;5057445;27;39613;-83
2021/06/21 08:52:43;;;;;;;4.85;3.67;;;;;;;;;;5060440;27;40022;-82
2021/06/21 08:55:10;;;;;;;3.90;3.40;;;;;;;;;;5065858;27;38223;-80
2021/06/21 08:57:38;;;;;;;6.45;4.05;;;;;;;;;;5060021;27;36793;-80
2021/06/21 09:00:06;;;;;;;6.03;3.72;;;;;;;;;;5060002;27;39302;-82
2021/06/21 09:02:33;;;;;;;5.60;5.00;;;;;;;;;;5047490;28;47286;-80
2021/06/21 09:05:00;;;;;;;9.15;5.90;;;;;;;;;;5060813;28;39161;-80
2021/06/21 09:07:27;;;;;;;10.75;6.13;;;;;;;;;;5051776;28;36445;-81
2021/06/21 09:09:55;;;;;;;8.07;6.43;;;;;;;;;;5057108;28;39148;-80
2021/06/21 09:12:21;;;;;;;9.40;5.72;;;;;;;;;;5057277;27;38884;-80
2021/06/21 09:14:48;;;;;;;8.82;6.68;;;;;;;;;;5059967;27;38538;-81
2021/06/21 09:17:17;;;;;;;11.38;7.20;;;;;;;;;;5060103;27;37422;-83
2021/06/21 09:19:45;;;;;;;8.82;7.60;;;;;;;;;;5053317;28;40981;-81
2021/06/21 09:22:23;;;;;;;9.40;6.35;;;;;;;;;;5046815;28;38871;-79
2021/06/21 09:24:50;;;;;;;6.45;5.85;;;;;;;;;;5059505;28;40397;-81
2021/06/21 09:27:21;;;;;;;9.15;6.18;;;;;;;;;;5054413;27;37661;-82
2021/06/21 09:29:48;;;;;;;7.78;6.68;;;;;;;;;;5066123;27;38747;-81
2021/06/21 09:32:15;;;;;;;7.70;6.85;;;;;;;;;;5059190;28;40618;-84
2021/06/21 09:34:42;;;;;;;8.95;8.02;;;;;;;;;;5052858;28;38460;-81
2021/06/21 09:37:12;;;;;;;9.65;6.40;;;;;;;;;;5052501;28;37198;-81
2021/06/21 09:39:42;;;;;;;7.63;6.85;;;;;;;;;;5061005;28;40504;-82
2021/06/21 09:42:15;;;;;;;10.27;6.28;;;;;;;;;;5062761;28;39001;-78
2021/06/21 09:44:46;;;;;;;6.60;5.90;;;;;;;;;;5064049;28;38515;-78
2021/06/21 09:47:12;;;;;;;8.00;6.50;;;;;;;;;;5060551;28;37673;-81
2021/06/21 09:49:39;;;;;;;6.32;5.63;;;;;;;;;;5056713;28;39520;-80
2021/06/21 09:52:05;;;;;;;9.48;6.05;;;;;;;;;;5050364;27;38589;-81
2021/06/21 09:54:35;;;;;;;6.90;5.65;;;;;;;;;;5061759;28;39136;-82
2021/06/21 09:57:14;;;;;;;5.03;4.53;;;;;;;;;;5057403;28;38237;-82
2021/06/21 09:59:48;;;;;;;6.38;4.55;;;;;;;;;;5048738;28;49607;-81
2021/06/21 10:02:22;;;;;;;6.68;4.63;;;;;;;;;;5056826;27;39327;-82
2021/06/21 10:04:49;;;;;;;6.22;4.82;;;;;;;;;;5060396;28;40239;-82
2021/06/21 10:07:29;;;;;;;5.53;4.75;;;;;;;;;;5060467;27;37210;-82
2021/06/21 10:09:56;;;;;;;4.22;3.92;;;;;;;;;;5044699;28;39193;-80
2021/06/21 10:12:23;;;;;;;5.53;3.95;;;;;;;;;;5041854;28;39879;-82
2021/06/21 10:14:50;;;;;;;5.57;4.28;;;;;;;;;;5041487;28;38344;-82
2021/06/21 10:17:17;;;;;;;4.97;3.97;;;;;;;;;;5031525;28;37234;-83
2021/06/21 10:19:43;;;;;;;5.35;4.22;;;;;;;;;;5039532;28;40870;-81
2021/06/21 10:22:10;;;;;;;3.80;3.50;;;;;;;;;;5039199;28;38316;-82
2021/06/21 10:24:36;;;;;;;5.90;3.45;;;;;;;;;;5055117;27;38202;-82
2021/06/21 10:27:05;;;;;;;4.78;3.40;;;;;;;;;;5049449;27;37039;-82
2021/06/21 10:29:32;;;;;;;6.32;3.50;;;;;;;;;;5064905;27;38805;-80
2021/06/21 10:32:00;;;;;;;3.58;2.92;;;;;;;;;;5049970;28;39167;-82
2021/06/21 10:34:26;;;;;;;4.53;3.15;;;;;;;;;;5054161;27;38501;-82
2021/06/21 10:36:54;;;;;;;6.65;3.50;;;;;;;;;;5056357;27;37739;-81
2021/06/21 10:39:24;;;;;;;4.20;3.00;;;;;;;;;;5051131;27;41181;-80
2021/06/21 10:42:06;;;;;;;5.63;2.97;;;;;;;;;;5070923;27;39566;-81
2021/06/21 10:44:50;;;;;;;5.78;2.97;;;;;;;;;;5051730;28;49098;-81
2021/06/21 10:47:28;;;;;;;3.83;3.13;;;;;;;;;;5059803;28;37442;-80
2021/06/21 10:50:07;;;;;;;3.97;3.30;;;;;;;;;;5047934;28;39776;-81
2021/06/21 10:52:35;;;;;;;3.45;3.15;;;;;;;;;;5057388;28;48955;-79
2021/06/21 10:55:20;;;;;;;3.40;3.10;;;;;;;;;;5058994;27;39577;-79
2021/06/21 10:57:47;;;;;;;3.45;2.72;;;;;;;;;;5088597;27;47178;-81
2021/06/21 11:00:15;;;;;;;6.60;3.65;;;;;;;;;;5061860;27;38884;-81
2021/06/21 11:02:42;;;;;;;3.53;3.13;;;;;;;;;;5060154;28;39199;-80
2021/06/21 11:05:09;;;;;;;5.68;3.30;;;;;;;;;;5061635;27;38565;-81
2021/06/21 11:07:35;;;;;;;5.95;4.07;;;;;;;;;;5055435;28;37120;-80
2021/06/21 11:10:04;;;;;;;4.40;3.42;;;;;;;;;;5080465;27;39482;-81
2021/06/21 11:12:39;;;;;;;4.15;3.28;;;;;;;;;;5053353;28;48788;-84
2021/06/21 11:15:09;;;;;;;4.78;3.13;;;;;;;;;;5049405;28;40003;-81
2021/06/21 11:17:53;;;;;;;4.43;3.17;;;;;;;;;;5061421;28;36323;-81
2021/06/21 11:20:31;;;;;;;4.47;2.83;;;;;;;;;;5052323;27;39378;-81
2021/06/21 11:23:02;;;;;;;4.25;3.03;;;;;;;;;;5061421;28;37624;-82
2021/06/21 11:25:29;;;;;;;3.60;3.00;;;;;;;;;;5047277;28;47467;-79
2021/06/21 11:27:56;;;;;;;4.78;2.58;;;;;;;;;;5036772;27;36676;-83
2021/06/21 11:30:26;;;;;;;5.13;3.47;;;;;;;;;;5039580;27;39069;-81
2021/06/21 11:32:54;;;;;;;3.88;2.97;;;;;;;;;;5036811;28;40046;-83
2021/06/21 11:35:39;;;;;;;4.30;2.83;;;;;;;;;;5058494;28;37644;-81
2021/06/21 11:38:25;;;;;;;3.78;2.90;;;;;;;;;;5039213;28;36861;-82
2021/06/21 11:41:10;;;;;;;3.22;2.50;;;;;;;;;;5063830;28;38113;-80
2021/06/21 11:43:44;;;;;;;4.40;2.28;;;;;;;;;;5058341;28;47365;-80
2021/06/21 11:46:10;;;;;;;3.55;2.30;;;;;;;;;;5048377;27;39065;-81
2021/06/21 11:48:39;;;;;;;2.95;2.00;;;;;;;;;;5055608;27;37588;-81
2021/06/21 11:51:11;;;;;;;3.58;2.13;;;;;;;;;;5062581;27;38851;-79
2021/06/21 11:53:41;;;;;;;3.75;2.63;;;;;;;;;;5056284;28;38125;-79
2021/06/21 11:56:07;;;;;;;3.78;1.90;;;;;;;;;;5050725;27;38295;-81
2021/06/21 11:58:34;;;;;;;4.47;2.05;;;;;;;;;;5054058;28;36199;-79
2021/06/21 12:01:01;;;;;;;2.80;1.75;;;;;;;;;;5058878;27;40652;-78
2021/06/21 12:03:32;;;;;;;2.60;1.80;;;;;;;;;;5057733;27;48929;-78
2021/06/21 12:05:58;;;;;;;2.13;1.60;;;;;;;;;;5070481;27;38367;-78
2021/06/21 12:08:25;;;;;;;3.70;1.58;;;;;;;;;;5053699;27;36567;-78
2021/06/21 12:10:51;;;;;;;2.22;1.08;;;;;;;;;;5048864;28;38547;-78
2021/06/21 12:13:22;;;;;;;2.15;1.15;;;;;;;;;;5049091;27;38909;-78
2021/06/21 12:15:48;;;;;;;4.05;1.30;;;;;;;;;;5048410;28;38478;-78
2021/06/21 12:18:24;;;;;;;2.60;1.30;;;;;;;;;;5046298;27;36814;-79
2021/06/21 12:20:51;;;;;;;3.05;1.95;;;;;;;;;;5065137;27;37999;-78
2021/06/21 12:23:17;;;;;;;2.75;2.05;;;;;;;;;;5054202;28;39712;-78
2021/06/21 12:25:48;;;;;;;3.75;2.40;;;;;;;;;;5048868;28;38863;-78
2021/06/21 12:28:18;;;;;;;7.13;2.22;;;;;;;;;;5050305;27;36931;-79
2021/06/21 12:30:47;;;;;;;4.15;2.40;;;;;;;;;;5053453;28;40762;-79
2021/06/21 12:33:31;;;;;;;3.70;2.10;;;;;;;;;;5052689;27;39892;-79
2021/06/21 12:36:12;;;;;;;3.97;2.83;;;;;;;;;;5058248;27;38644;-80
2021/06/21 12:38:53;;;;;;;3.63;2.10;;;;;;;;;;5053461;28;48699;-79
2021/06/21 12:41:24;;;;;;;5.17;2.40;;;;;;;;;;5052654;28;39547;-80
2021/06/21 12:43:55;;;;;;;3.97;2.13;;;;;;;;;;5057556;28;40760;-80
2021/06/21 12:46:22;;;;;;;3.40;2.13;;;;;;;;;;5072783;27;40172;-78
2021/06/21 12:48:48;;;;;;;4.38;2.53;;;;;;;;;;5067798;28;37537;-79
2021/06/21 12:51:16;;;;;;;5.07;3.20;;;;;;;;;;5058618;27;39360;-78
2021/06/21 12:53:47;;;;;;;3.65;2.40;;;;;;;;;;5060802;27;38833;-79
2021/06/21 12:56:20;;;;;;;3.45;2.67;;;;;;;;;;5042637;28;38475;-78
2021/06/21 12:58:47;;;;;;;2.63;2.10;;;;;;;;;;5057104;28;37688;-79
2021/06/21 13:01:22;;;;;;;4.18;2.00;;;;;;;;;;5061591;27;39177;-78
2021/06/21 13:03:49;;;;;;;5.43;2.13;;;;;;;;;;5051289;27;39037;-84
2021/06/21 13:06:28;;;;;;;2.25;1.70;;;;;;;;;;5047176;28;38786;-78
2021/06/21 13:09:00;;;;;;;2.53;1.95;;;;;;;;;;5051579;28;37032;-78
2021/06/21 13:11:26;;;;;;;3.63;2.10;;;;;;;;;;5049297;28;39456;-78
2021/06/21 13:13:53;;;;;;;3.45;1.70;;;;;;;;;;5033985;28;40515;-78
2021/06/21 13:16:23;;;;;;;2.17;1.23;;;;;;;;;;5035762;28;39597;-78
2021/06/21 13:18:51;;;;;;;3.15;1.65;;;;;;;;;;5036938;28;37670;-79
2021/06/21 13:21:34;;;;;;;2.75;1.60;;;;;;;;;;5037788;28;39633;-79
2021/06/21 13:24:01;;;;;;;3.70;2.15;;;;;;;;;;5052893;28;37944;-78
2021/06/21 13:26:30;;;;;;;5.18;1.45;;;;;;;;;;5028390;28;37917;-81
2021/06/21 13:28:57;;;;;;;3.08;1.55;;;;;;;;;;5036160;28;36842;-79
2021/06/21 13:31:24;;;;;;;3.35;1.40;;;;;;;;;;5033472;28;39171;-78
2021/06/21 13:33:51;;;;;;;2.97;1.23;;;;;;;;;;5040457;28;38815;-80
2021/06/21 13:36:18;;;;;;;4.65;1.77;;;;;;;;;;5036220;28;39230;-80
2021/06/21 13:38:46;;;;;;;4.20;1.42;;;;;;;;;;5041998;28;36564;-79
2021/06/21 13:41:24;;;;;;;4.50;1.70;;;;;;;;;;5037520;28;38830;-79
2021/06/21 13:43:51;;;;;;;2.72;1.45;;;;;;;;;;5066645;28;39513;-81
2021/06/21 13:46:21;;;;;;;3.40;1.98;;;;;;;;;;5037793;27;38265;-78
2021/06/21 13:48:47;;;;;;;3.08;1.83;;;;;;;;;;5060521;28;38062;-80
2021/06/21 13:51:15;;;;;;;2.80;1.50;;;;;;;;;;5034742;28;39022;-79
2021/06/21 13:53:42;;;;;;;9.80;2.00;;;;;;;;;;5035355;28;39348;-78
2021/06/21 13:56:10;;;;;;;2.05;1.40;;;;;;;;;;5029668;28;40107;-80
2021/06/21 13:58:40;;;;;;;4.20;1.83;;;;;;;;;;5065827;28;37783;-78
2021/06/21 14:01:15;;;;;;;5.15;1.92;;;;;;;;;;5039475;28;39188;-80
2021/06/21 14:03:44;;;;;;;3.85;1.70;;;;;;;;;;5039385;28;36766;-78
2021/06/21 14:06:11;;;;;;;3.05;1.58;;;;;;;;;;5044185;28;38553;-78
2021/06/21 14:08:37;;;;;;;2.92;1.30;;;;;;;;;;5036754;28;36730;-80
2021/06/21 14:11:06;;;;;;;2.00;1.35;;;;;;;;;;5060676;27;37820;-79
2021/06/21 14:13:35;;;;;;;3.95;1.50;;;;;;;;;;5060320;28;40684;-79
2021/06/21 14:16:01;;;;;;;3.95;1.80;;;;;;;;;;5040194;28;36115;-79
2021/06/21 14:18:28;;;;;;;3.35;1.85;;;;;;;;;;5065202;28;37890;-78
2021/06/21 14:20:55;;;;;;;3.47;1.58;;;;;;;;;;5067357;28;39407;-81
2021/06/21 14:23:22;;;;;;;2.63;1.50;;;;;;;;;;5034904;28;38850;-79
2021/06/21 14:25:49;;;;;;;3.47;1.92;;;;;;;;;;5066345;27;40180;-79
2021/06/21 14:28:16;;;;;;;2.85;1.85;;;;;;;;;;5031406;28;38182;-79
2021/06/21 14:30:42;;;;;;;3.65;1.90;;;;;;;;;;5052161;28;38618;-79
2021/06/21 14:33:12;;;;;;;4.68;1.75;;;;;;;;;;5039734;28;39208;-81
2021/06/21 14:35:38;;;;;;;4.18;1.67;;;;;;;;;;5037709;28;37755;-79
2021/06/21 14:38:05;;;;;;;5.15;1.77;;;;;;;;;;5042226;28;37195;-79
2021/06/21 14:40:31;;;;;;;2.15;1.60;;;;;;;;;;5068761;28;38039;-79
2021/06/21 14:42:58;;;;;;;3.45;1.65;;;;;;;;;;5067432;28;38994;-79
2021/06/21 14:45:24;;;;;;;4.30;1.83;;;;;;;;;;5037892;27;39658;-78